createdAt,value
2023-03-15T00:00:39.325Z,18.78
2023-03-15T00:03:05.886Z,18.77
2023-03-15T00:05:32.223Z,18.76
2023-03-15T00:07:58.793Z,18.73
2023-03-15T00:10:25.291Z,18.70
2023-03-15T00:12:51.684Z,18.67
2023-03-15T00:15:18.081Z,18.65
2023-03-15T00:17:44.589Z,18.61
2023-03-15T00:20:11.088Z,18.60
2023-03-15T00:22:37.616Z,18.58
2023-03-15T00:25:03.992Z,18.54
2023-03-15T00:27:30.371Z,18.50
2023-03-15T00:29:57.255Z,18.49
2023-03-15T00:32:23.830Z,18.48
2023-03-15T00:34:50.223Z,18.44
2023-03-15T00:37:17.050Z,18.41
2023-03-15T00:39:43.494Z,18.40
2023-03-15T00:42:09.857Z,18.39
2023-03-15T00:44:36.336Z,18.36
2023-03-15T00:47:02.736Z,18.33
2023-03-15T00:49:29.445Z,18.30
2023-03-15T00:51:55.840Z,18.28
2023-03-15T00:54:22.283Z,18.27
2023-03-15T00:56:48.589Z,18.23
2023-03-15T00:59:14.938Z,18.21
2023-03-15T01:01:41.688Z,18.18
2023-03-15T01:04:08.139Z,18.16
2023-03-15T01:06:34.548Z,18.14
2023-03-15T01:09:01.275Z,18.12
2023-03-15T01:11:27.564Z,18.10
2023-03-15T01:13:54.664Z,18.09
2023-03-15T01:16:21.017Z,18.06
2023-03-15T01:18:48.107Z,18.03
2023-03-15T01:21:14.655Z,18.01
2023-03-15T01:23:41.325Z,17.98
2023-03-15T01:26:07.764Z,17.95
2023-03-15T01:28:34.214Z,17.93
2023-03-15T01:31:00.599Z,17.92
2023-03-15T01:33:27.548Z,17.90
2023-03-15T01:35:53.955Z,17.90
2023-03-15T01:38:20.461Z,17.89
2023-03-15T01:40:46.764Z,17.87
2023-03-15T01:43:13.117Z,17.85
2023-03-15T01:45:39.987Z,17.84
2023-03-15T01:48:06.339Z,17.81
2023-03-15T01:50:32.765Z,17.81
2023-03-15T01:52:59.233Z,17.81
2023-03-15T01:55:25.775Z,17.78
2023-03-15T01:57:52.665Z,17.76
2023-03-15T02:00:19.390Z,17.75
2023-03-15T02:02:46.263Z,17.73
2023-03-15T02:05:13.357Z,17.73
2023-03-15T02:07:39.826Z,17.69
2023-03-15T02:10:06.324Z,17.68
2023-03-15T02:12:32.647Z,17.65
2023-03-15T02:14:59.048Z,17.62
2023-03-15T02:17:25.408Z,17.61
2023-03-15T02:19:53.016Z,17.56
2023-03-15T02:22:19.327Z,17.55
2023-03-15T02:24:46.117Z,17.50
2023-03-15T02:27:12.690Z,17.47
2023-03-15T02:29:39.067Z,17.47
2023-03-15T02:32:05.450Z,17.45
2023-03-15T02:34:31.913Z,17.43
2023-03-15T02:36:58.196Z,17.43
2023-03-15T02:39:24.741Z,17.39
2023-03-15T02:41:51.187Z,17.39
2023-03-15T02:44:17.968Z,17.38
2023-03-15T02:46:44.290Z,17.35
2023-03-15T02:49:11.487Z,17.33
2023-03-15T02:51:37.922Z,17.32
2023-03-15T02:54:04.395Z,17.31
2023-03-15T02:56:30.786Z,17.28
2023-03-15T02:58:57.094Z,17.27
2023-03-15T03:01:23.548Z,17.25
2023-03-15T03:03:49.958Z,17.23
2023-03-15T03:06:16.305Z,17.22
2023-03-15T03:08:43.072Z,17.21
2023-03-15T03:11:09.785Z,17.21
2023-03-15T03:13:36.105Z,17.18
2023-03-15T03:16:04.056Z,17.18
2023-03-15T03:18:30.924Z,17.17
2023-03-15T03:20:57.805Z,17.15
2023-03-15T03:23:24.120Z,17.13
2023-03-15T03:25:51.023Z,17.12
2023-03-15T03:28:17.314Z,17.10
2023-03-15T03:30:43.715Z,17.09
2023-03-15T03:33:10.812Z,17.08
2023-03-15T03:35:37.240Z,17.05
2023-03-15T03:38:04.201Z,17.05
2023-03-15T03:40:31.126Z,17.04
2023-03-15T03:42:57.493Z,17.02
2023-03-15T03:45:23.924Z,17.01
2023-03-15T03:47:50.352Z,17.00
2023-03-15T03:50:17.045Z,16.99
2023-03-15T03:52:43.377Z,16.98
2023-03-15T03:55:09.700Z,16.96
2023-03-15T03:57:36.089Z,16.95
2023-03-15T04:00:02.840Z,16.94
2023-03-15T04:02:29.617Z,16.91
2023-03-15T04:04:56.043Z,16.91
2023-03-15T04:07:22.438Z,16.89
2023-03-15T04:09:49.010Z,16.87
2023-03-15T04:12:15.318Z,16.87
2023-03-15T04:14:41.736Z,16.86
2023-03-15T04:17:08.131Z,16.85
2023-03-15T04:19:34.580Z,16.83
2023-03-15T04:22:00.860Z,16.81
2023-03-15T04:24:27.211Z,16.81
2023-03-15T04:26:53.681Z,16.79
2023-03-15T04:29:20.153Z,16.79
2023-03-15T04:31:46.617Z,16.77
2023-03-15T04:34:13.690Z,16.77
2023-03-15T04:36:40.983Z,16.75
2023-03-15T04:39:07.914Z,16.74
2023-03-15T04:41:34.256Z,16.71
2023-03-15T04:44:00.620Z,16.73
2023-03-15T04:46:26.975Z,16.70
2023-03-15T04:48:53.320Z,16.69
2023-03-15T04:51:19.724Z,16.67
2023-03-15T04:53:46.531Z,16.66
2023-03-15T04:56:13.139Z,16.67
2023-03-15T04:58:39.994Z,16.65
2023-03-15T05:01:06.379Z,16.64
2023-03-15T05:03:33.649Z,16.65
2023-03-15T05:05:59.996Z,16.61
2023-03-15T05:08:26.635Z,16.61
2023-03-15T05:10:53.080Z,16.61
2023-03-15T05:13:19.682Z,16.59
2023-03-15T05:15:46.050Z,16.57
2023-03-15T05:18:12.374Z,16.56
2023-03-15T05:20:39.431Z,16.57
2023-03-15T05:23:06.227Z,16.55
2023-03-15T05:25:32.771Z,16.56
2023-03-15T05:27:59.640Z,16.54
2023-03-15T05:30:26.604Z,16.53
2023-03-15T05:32:53.168Z,16.53
2023-03-15T05:35:19.743Z,16.51
2023-03-15T05:37:46.089Z,16.49
2023-03-15T05:40:12.576Z,16.49
2023-03-15T05:42:38.919Z,16.47
2023-03-15T05:45:05.210Z,16.44
2023-03-15T05:47:33.160Z,16.44
2023-03-15T05:50:00.396Z,16.43
2023-03-15T05:52:27.473Z,16.42
2023-03-15T05:54:53.856Z,16.40
2023-03-15T05:57:20.487Z,16.40
2023-03-15T05:59:47.387Z,16.38
2023-03-15T06:02:13.848Z,16.37
2023-03-15T06:04:40.391Z,16.36
2023-03-15T06:07:07.155Z,16.35
2023-03-15T06:09:33.535Z,16.32
2023-03-15T06:11:59.830Z,16.33
2023-03-15T06:14:26.691Z,16.31
2023-03-15T06:16:53.160Z,16.32
2023-03-15T06:19:19.699Z,16.28
2023-03-15T06:21:46.527Z,16.29
2023-03-15T06:24:13.318Z,16.28
2023-03-15T06:26:39.683Z,16.27
2023-03-15T06:29:06.022Z,16.25
2023-03-15T06:31:33.024Z,16.27
2023-03-15T06:33:59.595Z,16.28
2023-03-15T06:36:25.967Z,16.17
2023-03-15T06:38:52.295Z,16.22
2023-03-15T06:41:18.679Z,16.21
2023-03-15T06:43:45.139Z,16.20
2023-03-15T06:46:11.725Z,16.23
2023-03-15T06:48:38.149Z,16.21
2023-03-15T06:51:04.476Z,16.20
2023-03-15T06:53:30.948Z,16.20
2023-03-15T06:55:57.506Z,16.18
2023-03-15T06:58:23.919Z,16.19
2023-03-15T07:00:50.264Z,16.17
2023-03-15T07:03:17.077Z,16.18
2023-03-15T07:05:43.447Z,16.17
2023-03-15T07:08:10.469Z,16.18
2023-03-15T07:10:37.041Z,16.16
2023-03-15T07:13:03.498Z,16.17
2023-03-15T07:15:30.010Z,16.17
2023-03-15T07:17:56.819Z,16.17
2023-03-15T07:20:23.867Z,16.14
2023-03-15T07:22:50.314Z,16.14
2023-03-15T07:25:16.616Z,16.14
2023-03-15T07:27:43.006Z,16.14
2023-03-15T07:30:09.921Z,16.13
2023-03-15T07:32:36.749Z,16.12
2023-03-15T07:35:03.201Z,16.14
2023-03-15T07:37:29.644Z,16.12
2023-03-15T07:39:56.012Z,16.13
2023-03-15T07:42:22.352Z,16.11
2023-03-15T07:44:48.681Z,16.11
2023-03-15T07:47:16.077Z,16.12
2023-03-15T07:49:42.430Z,16.13
2023-03-15T07:52:09.038Z,16.12
2023-03-15T07:54:35.528Z,16.12
2023-03-15T07:57:02.255Z,16.11
2023-03-15T07:59:29.029Z,16.13
2023-03-15T08:01:55.482Z,16.12
2023-03-15T08:04:21.850Z,16.10
2023-03-15T08:06:48.252Z,16.10
2023-03-15T08:09:14.740Z,16.09
2023-03-15T08:11:42.163Z,16.09
2023-03-15T08:14:10.804Z,16.08
2023-03-15T08:16:37.634Z,16.09
2023-03-15T08:19:04.431Z,16.07
2023-03-15T08:21:30.799Z,16.08
2023-03-15T08:23:57.182Z,16.07
2023-03-15T08:26:23.856Z,16.08
2023-03-15T08:28:50.667Z,16.09
2023-03-15T08:31:17.819Z,16.08
2023-03-15T08:33:44.256Z,16.09
2023-03-15T08:36:10.972Z,16.06
2023-03-15T08:38:37.762Z,16.08
2023-03-15T08:41:04.473Z,16.09
2023-03-15T08:43:31.365Z,16.08
2023-03-15T08:46:01.147Z,16.02
2023-03-15T08:48:28.256Z,16.03
2023-03-15T08:50:54.594Z,16.04
2023-03-15T08:53:21.067Z,16.03
2023-03-15T08:55:47.441Z,16.04
2023-03-15T08:58:14.008Z,16.02
2023-03-15T09:00:40.644Z,16.03
2023-03-15T09:03:07.754Z,16.02
2023-03-15T09:05:34.223Z,16.03
2023-03-15T09:08:00.592Z,16.01
2023-03-15T09:10:27.033Z,16.02
2023-03-15T09:12:53.422Z,16.01
2023-03-15T09:15:20.172Z,16.00
2023-03-15T09:17:46.674Z,15.99
2023-03-15T09:20:13.100Z,15.98
2023-03-15T09:22:39.965Z,15.95
2023-03-15T09:25:06.457Z,15.95
2023-03-15T09:27:33.408Z,15.95
2023-03-15T09:29:59.829Z,15.91
2023-03-15T09:32:26.135Z,15.98
2023-03-15T09:34:52.873Z,15.97
2023-03-15T09:37:19.558Z,15.94
2023-03-15T09:39:45.986Z,15.90
2023-03-15T09:42:12.607Z,15.92
2023-03-15T09:44:39.114Z,15.90
2023-03-15T09:47:05.922Z,15.90
2023-03-15T09:49:32.740Z,15.91
2023-03-15T09:51:59.540Z,15.89
2023-03-15T09:54:25.940Z,15.90
2023-03-15T09:56:52.291Z,15.91
2023-03-15T09:59:18.630Z,15.93
2023-03-15T10:01:45.409Z,15.94
2023-03-15T10:04:11.815Z,15.92
2023-03-15T10:06:38.531Z,15.91
2023-03-15T10:09:04.844Z,15.91
2023-03-15T10:11:31.447Z,15.92
2023-03-15T10:13:58.024Z,15.92
2023-03-15T10:16:24.445Z,15.92
2023-03-15T10:18:51.280Z,15.91
2023-03-15T10:21:17.662Z,15.90
2023-03-15T10:23:44.551Z,15.90
2023-03-15T10:26:11.721Z,15.95
2023-03-15T10:28:39.055Z,15.93
2023-03-15T10:31:05.434Z,15.90
2023-03-15T10:33:32.881Z,15.93
2023-03-15T10:36:10.696Z,15.88
2023-03-15T10:38:37.660Z,15.91
2023-03-15T10:41:04.129Z,15.92
2023-03-15T10:43:30.482Z,15.91
2023-03-15T10:45:56.858Z,15.94
2023-03-15T10:48:23.597Z,15.94
2023-03-15T10:50:49.930Z,15.91
2023-03-15T10:53:17.015Z,15.91
2023-03-15T10:55:43.591Z,15.93
2023-03-15T10:58:10.012Z,15.92
2023-03-15T11:00:36.370Z,15.91
2023-03-15T11:03:03.809Z,15.93
2023-03-15T11:05:30.487Z,15.91
2023-03-15T11:07:57.722Z,15.91
2023-03-15T11:10:24.268Z,15.88
2023-03-15T11:12:50.766Z,15.89
2023-03-15T11:15:17.562Z,15.90
2023-03-15T11:17:44.482Z,15.89
2023-03-15T11:20:10.832Z,15.90
2023-03-15T11:22:37.554Z,15.89
2023-03-15T11:25:03.922Z,15.87
2023-03-15T11:27:30.190Z,15.84
2023-03-15T11:29:56.677Z,15.86
2023-03-15T11:32:23.490Z,15.85
2023-03-15T11:34:49.946Z,15.84
2023-03-15T11:37:16.322Z,15.86
2023-03-15T11:39:42.640Z,15.84
2023-03-15T11:42:11.093Z,15.82
2023-03-15T11:44:37.579Z,15.82
2023-03-15T11:47:03.983Z,15.81
2023-03-15T11:49:30.295Z,15.82
2023-03-15T11:51:57.259Z,15.79
2023-03-15T11:54:23.603Z,15.77
2023-03-15T11:56:50.045Z,15.78
2023-03-15T11:59:16.704Z,15.76
2023-03-15T12:01:43.087Z,15.77
2023-03-15T12:04:09.934Z,15.73
2023-03-15T12:06:36.282Z,15.74
2023-03-15T12:09:03.125Z,15.72
2023-03-15T12:11:29.897Z,15.71
2023-03-15T12:13:56.296Z,15.72
2023-03-15T12:16:23.494Z,15.70
2023-03-15T12:18:49.919Z,15.71
2023-03-15T12:21:16.997Z,15.70
2023-03-15T12:23:43.339Z,15.69
2023-03-15T12:26:09.819Z,15.67
2023-03-15T12:28:36.168Z,15.67
2023-03-15T12:31:02.921Z,15.67
2023-03-15T12:33:29.364Z,15.69
2023-03-15T12:35:55.815Z,15.66
2023-03-15T12:38:22.275Z,15.63
2023-03-15T12:40:49.419Z,15.63
2023-03-15T12:43:16.614Z,15.63
2023-03-15T12:45:43.047Z,15.64
2023-03-15T12:48:10.075Z,15.63
2023-03-15T12:50:36.691Z,15.63
2023-03-15T12:53:02.968Z,15.61
2023-03-15T12:55:29.711Z,15.60
2023-03-15T12:57:56.137Z,15.62
2023-03-15T13:00:23.221Z,15.63
2023-03-15T13:02:49.694Z,15.60
2023-03-15T13:05:16.141Z,15.60
2023-03-15T13:07:51.525Z,15.62
2023-03-15T13:10:18.629Z,15.60
2023-03-15T13:12:44.964Z,15.59
2023-03-15T13:15:11.927Z,15.59
2023-03-15T13:17:38.320Z,15.59
2023-03-15T13:20:05.294Z,15.57
2023-03-15T13:22:31.721Z,15.59
2023-03-15T13:24:58.046Z,15.57
2023-03-15T13:27:24.436Z,15.57
2023-03-15T13:29:50.698Z,15.59
2023-03-15T13:32:17.777Z,15.57
2023-03-15T13:34:44.600Z,15.56
2023-03-15T13:37:11.219Z,15.56
2023-03-15T13:39:37.793Z,15.55
2023-03-15T13:42:04.493Z,15.56
2023-03-15T13:44:31.103Z,15.55
2023-03-15T13:46:58.327Z,15.55
2023-03-15T13:49:24.761Z,15.53
2023-03-15T13:51:51.092Z,15.53
2023-03-15T13:54:17.560Z,15.54
2023-03-15T13:56:49.699Z,15.55
2023-03-15T13:59:16.422Z,15.54
2023-03-15T14:01:43.159Z,15.53
2023-03-15T14:04:10.123Z,15.54
2023-03-15T14:06:36.518Z,15.54
2023-03-15T14:09:02.966Z,15.55
2023-03-15T14:11:29.808Z,15.52
2023-03-15T14:13:56.919Z,15.52
2023-03-15T14:16:23.526Z,15.51
2023-03-15T14:18:49.897Z,15.52
2023-03-15T14:21:17.048Z,15.50
2023-03-15T14:23:43.648Z,15.52
2023-03-15T14:26:10.512Z,15.51
2023-03-15T14:28:37.007Z,15.55
2023-03-15T14:31:03.963Z,15.55
2023-03-15T14:33:30.422Z,15.53
2023-03-15T14:35:57.607Z,15.57
2023-03-15T14:38:24.724Z,15.56
2023-03-15T14:40:51.724Z,15.57
2023-03-15T14:43:18.040Z,15.57
2023-03-15T14:45:44.413Z,15.58
2023-03-15T14:48:10.882Z,15.56
2023-03-15T14:50:37.664Z,15.57
2023-03-15T14:53:04.087Z,15.58
2023-03-15T14:55:30.719Z,15.57
2023-03-15T14:57:57.089Z,15.56
2023-03-15T15:00:23.434Z,15.56
2023-03-15T15:02:49.774Z,15.55
2023-03-15T15:05:16.168Z,15.53
2023-03-15T15:07:42.603Z,15.55
2023-03-15T15:10:09.344Z,15.55
2023-03-15T15:12:36.414Z,15.55
2023-03-15T15:15:02.804Z,15.58
2023-03-15T15:17:29.669Z,15.57
2023-03-15T15:19:56.045Z,15.56
2023-03-15T15:22:22.546Z,15.57
2023-03-15T15:24:50.987Z,15.57
2023-03-15T15:27:17.943Z,15.59
2023-03-15T15:29:44.881Z,15.57
2023-03-15T15:32:11.368Z,15.56
2023-03-15T15:34:37.677Z,15.57
2023-03-15T15:37:04.160Z,15.55
2023-03-15T15:39:30.684Z,15.55
2023-03-15T15:41:57.129Z,15.53
2023-03-15T15:44:23.497Z,15.53
2023-03-15T15:46:49.935Z,15.53
2023-03-15T15:49:16.398Z,15.52
2023-03-15T15:51:42.929Z,15.51
2023-03-15T15:54:09.238Z,15.49
2023-03-15T15:56:35.605Z,15.48
2023-03-15T15:59:02.088Z,15.47
2023-03-15T16:01:28.484Z,15.45
2023-03-15T16:03:55.020Z,15.45
2023-03-15T16:06:21.867Z,15.43
2023-03-15T16:08:48.268Z,15.42
2023-03-15T16:11:14.728Z,15.41
2023-03-15T16:13:41.730Z,15.42
2023-03-15T16:16:08.088Z,15.41
2023-03-15T16:18:34.790Z,15.41
2023-03-15T16:21:02.049Z,15.41
2023-03-15T16:23:28.428Z,15.39
2023-03-15T16:25:54.757Z,15.39
2023-03-15T16:28:21.137Z,15.38
2023-03-15T16:30:47.422Z,15.39
2023-03-15T16:33:13.816Z,15.38
2023-03-15T16:35:40.543Z,15.38
2023-03-15T16:38:07.485Z,15.38
2023-03-15T16:40:33.795Z,15.38
2023-03-15T16:43:00.706Z,15.36
2023-03-15T16:45:27.558Z,15.36
2023-03-15T16:47:53.966Z,15.34
2023-03-15T16:50:20.955Z,15.35
2023-03-15T16:52:47.300Z,15.35
2023-03-15T16:55:13.821Z,15.35
2023-03-15T16:57:40.339Z,15.35
2023-03-15T17:00:06.739Z,15.36
2023-03-15T17:02:33.604Z,15.33
2023-03-15T17:04:59.994Z,15.33
2023-03-15T17:07:26.585Z,15.33
2023-03-15T17:09:53.209Z,15.33
2023-03-15T17:12:19.596Z,15.34
2023-03-15T17:14:46.011Z,15.31
2023-03-15T17:17:12.417Z,15.31
2023-03-15T17:19:38.722Z,15.33
2023-03-15T17:22:05.437Z,15.31
2023-03-15T17:24:31.809Z,15.29
2023-03-15T17:26:58.197Z,15.30
2023-03-15T17:29:24.594Z,15.31
2023-03-15T17:31:51.173Z,15.30
2023-03-15T17:34:18.937Z,15.29
2023-03-15T17:36:46.293Z,15.30
2023-03-15T17:39:13.346Z,15.29
2023-03-15T17:41:39.689Z,15.29
2023-03-15T17:44:06.102Z,15.29
2023-03-15T17:46:32.538Z,15.27
2023-03-15T17:48:58.809Z,15.28
2023-03-15T17:51:25.482Z,15.28
2023-03-15T17:53:51.797Z,15.29
2023-03-15T17:56:18.203Z,15.27
2023-03-15T17:58:44.579Z,15.27
2023-03-15T18:01:10.982Z,15.27
2023-03-15T18:03:37.922Z,15.27
2023-03-15T18:06:04.367Z,15.26
2023-03-15T18:08:31.210Z,15.25
2023-03-15T18:10:57.529Z,15.24
2023-03-15T18:13:24.170Z,15.24
2023-03-15T18:15:50.628Z,15.22
2023-03-15T18:18:17.600Z,15.21
2023-03-15T18:20:44.156Z,15.23
2023-03-15T18:23:10.935Z,15.20
2023-03-15T18:25:37.256Z,15.21
2023-03-15T18:28:03.980Z,15.21
2023-03-15T18:30:30.358Z,15.20
2023-03-15T18:32:57.155Z,15.20
2023-03-15T18:35:23.501Z,15.20
2023-03-15T18:37:50.285Z,15.20
2023-03-15T18:40:17.154Z,15.18
2023-03-15T18:42:44.032Z,15.19
2023-03-15T18:45:11.021Z,15.18
2023-03-15T18:47:37.319Z,15.18
2023-03-15T18:50:09.946Z,15.22
2023-03-15T18:52:37.074Z,15.19
2023-03-15T18:55:03.869Z,15.19
2023-03-15T18:57:30.324Z,15.19
2023-03-15T18:59:57.253Z,15.19
2023-03-15T19:02:24.104Z,15.21
2023-03-15T19:04:50.472Z,15.20
2023-03-15T19:07:17.046Z,15.19
2023-03-15T19:09:43.541Z,15.18
2023-03-15T19:12:10.527Z,15.19
2023-03-15T19:14:37.016Z,15.17
2023-03-15T19:17:03.600Z,15.17
2023-03-15T19:19:30.190Z,15.19
2023-03-15T19:21:56.620Z,15.18
2023-03-15T19:24:23.362Z,15.16
2023-03-15T19:26:49.683Z,15.17
2023-03-15T19:29:16.355Z,15.15
2023-03-15T19:31:42.945Z,15.15
2023-03-15T19:34:09.962Z,15.15
2023-03-15T19:36:37.029Z,15.15
2023-03-15T19:39:03.481Z,15.13
2023-03-15T19:41:31.002Z,15.13
2023-03-15T19:43:57.674Z,15.13
2023-03-15T19:46:24.166Z,15.13
2023-03-15T19:48:51.324Z,15.12
2023-03-15T19:51:17.657Z,15.13
2023-03-15T19:53:44.038Z,15.11
2023-03-15T19:56:10.950Z,15.10
2023-03-15T19:58:37.324Z,15.09
2023-03-15T20:01:03.596Z,15.08
2023-03-15T20:03:30.484Z,15.09
2023-03-15T20:05:56.820Z,15.09
2023-03-15T20:08:26.270Z,15.09
2023-03-15T20:10:52.676Z,15.08
2023-03-15T20:13:19.651Z,15.07
2023-03-15T20:15:46.261Z,15.07
2023-03-15T20:18:12.699Z,15.06
2023-03-15T20:20:39.596Z,15.06
2023-03-15T20:23:06.005Z,15.06
2023-03-15T20:25:32.547Z,15.05
2023-03-15T20:27:59.326Z,15.03
2023-03-15T20:30:25.682Z,15.03
2023-03-15T20:32:52.596Z,15.03
2023-03-15T20:35:19.406Z,15.02
2023-03-15T20:37:45.896Z,15.02
2023-03-15T20:40:12.299Z,15.01
2023-03-15T20:42:39.294Z,15.00
2023-03-15T20:45:05.854Z,15.00
2023-03-15T20:47:32.244Z,15.00
2023-03-15T20:49:58.669Z,14.99
2023-03-15T20:52:26.028Z,14.99
2023-03-15T20:54:52.835Z,14.97
2023-03-15T20:57:19.756Z,14.98
2023-03-15T20:59:46.308Z,14.97
2023-03-15T21:02:13.187Z,14.97
2023-03-15T21:04:39.861Z,14.97
2023-03-15T21:07:06.189Z,14.96
2023-03-15T21:09:33.386Z,14.96
2023-03-15T21:12:00.201Z,14.96
2023-03-15T21:14:27.794Z,14.95
2023-03-15T21:16:54.128Z,14.92
2023-03-15T21:19:20.491Z,14.93
2023-03-15T21:21:46.839Z,14.93
2023-03-15T21:24:13.960Z,14.94
2023-03-15T21:26:40.326Z,14.92
2023-03-15T21:29:06.745Z,14.92
2023-03-15T21:31:33.054Z,14.91
2023-03-15T21:33:59.646Z,14.89
2023-03-15T21:36:26.444Z,14.90
2023-03-15T21:38:53.604Z,14.90
2023-03-15T21:41:20.162Z,14.89
2023-03-15T21:43:47.111Z,14.89
2023-03-15T21:46:13.646Z,14.88
2023-03-15T21:48:40.189Z,14.86
2023-03-15T21:51:06.588Z,14.86
2023-03-15T21:53:33.441Z,14.88
2023-03-15T21:56:00.229Z,14.86
2023-03-15T21:58:28.015Z,14.85
2023-03-15T22:00:54.348Z,14.85
2023-03-15T22:03:21.067Z,14.84
2023-03-15T22:05:47.935Z,14.83
2023-03-15T22:08:14.665Z,14.84
2023-03-15T22:10:41.380Z,14.83
2023-03-15T22:13:07.946Z,14.83
2023-03-15T22:15:34.241Z,14.82
2023-03-15T22:18:00.714Z,14.83
2023-03-15T22:20:27.607Z,14.79
2023-03-15T22:22:54.014Z,14.79
2023-03-15T22:25:20.626Z,14.81
2023-03-15T22:27:47.065Z,14.81
2023-03-15T22:30:13.417Z,14.79
2023-03-15T22:32:40.348Z,14.78
2023-03-15T22:35:06.891Z,14.79
2023-03-15T22:37:33.176Z,14.78
2023-03-15T22:39:59.514Z,14.77
2023-03-15T22:42:25.895Z,14.78
2023-03-15T22:44:52.234Z,14.77
2023-03-15T22:47:18.712Z,14.75
2023-03-15T22:49:45.188Z,14.75
2023-03-15T22:52:11.845Z,14.75
2023-03-15T22:54:38.243Z,14.74
2023-03-15T22:57:05.399Z,14.74
2023-03-15T22:59:32.333Z,14.72
2023-03-15T23:01:58.706Z,14.73
2023-03-15T23:04:25.302Z,14.72
2023-03-15T23:06:52.019Z,14.71
2023-03-15T23:09:18.569Z,14.71
2023-03-15T23:11:45.387Z,14.70
2023-03-15T23:14:11.928Z,14.69
2023-03-15T23:16:38.270Z,14.71
2023-03-15T23:19:05.319Z,14.71
2023-03-15T23:21:32.181Z,14.70
2023-03-15T23:23:58.535Z,14.70
2023-03-15T23:26:24.898Z,14.68
2023-03-15T23:28:51.406Z,14.68
2023-03-15T23:31:17.822Z,14.68
2023-03-15T23:33:44.751Z,14.68
2023-03-15T23:36:11.332Z,14.66
2023-03-15T23:38:37.819Z,14.65
2023-03-15T23:41:04.154Z,14.65
2023-03-15T23:43:30.658Z,14.64
2023-03-15T23:45:57.127Z,14.63
2023-03-15T23:48:23.510Z,14.63
2023-03-15T23:50:50.052Z,14.63
2023-03-15T23:53:17.032Z,14.63
2023-03-15T23:55:43.429Z,14.63
2023-03-15T23:58:09.862Z,14.63
